sensor_id;sensor_type;location;lat;lon;timestamp;P1;durP1;ratioP1;P2;durP2;ratioP2
60344;SDS011;46188;52.324;8.032;2023-08-20T00:01:57;6.30;;;3.00;;
60344;SDS011;46188;52.324;8.032;2023-08-20T00:04:24;4.97;;;3.00;;
60344;SDS011;46188;52.324;8.032;2023-08-20T00:06:50;10.35;;;3.33;;
60344;SDS011;46188;52.324;8.032;2023-08-20T00:09:16;5.00;;;3.28;;
60344;SDS011;46188;52.324;8.032;2023-08-20T00:11:41;6.00;;;3.30;;
60344;SDS011;46188;52.324;8.032;2023-08-20T00:14:07;9.07;;;3.17;;
60344;SDS011;46188;52.324;8.032;2023-08-20T00:16:32;5.60;;;3.05;;
60344;SDS011;46188;52.324;8.032;2023-08-20T00:18:58;4.13;;;2.97;;
60344;SDS011;46188;52.324;8.032;2023-08-20T00:21:23;4.38;;;2.78;;
60344;SDS011;46188;52.324;8.032;2023-08-20T00:23:49;7.07;;;3.65;;
60344;SDS011;46188;52.324;8.032;2023-08-20T00:26:14;6.20;;;2.72;;
60344;SDS011;46188;52.324;8.032;2023-08-20T00:28:39;5.43;;;3.40;;
60344;SDS011;46188;52.324;8.032;2023-08-20T00:31:05;4.63;;;2.72;;
60344;SDS011;46188;52.324;8.032;2023-08-20T00:33:34;8.60;;;3.10;;
60344;SDS011;46188;52.324;8.032;2023-08-20T00:35:59;5.63;;;3.83;;
60344;SDS011;46188;52.324;8.032;2023-08-20T00:38:25;5.78;;;3.05;;
60344;SDS011;46188;52.324;8.032;2023-08-20T00:40:50;7.13;;;3.05;;
60344;SDS011;46188;52.324;8.032;2023-08-20T00:43:15;5.97;;;3.17;;
60344;SDS011;46188;52.324;8.032;2023-08-20T00:45:41;4.93;;;3.20;;
60344;SDS011;46188;52.324;8.032;2023-08-20T00:48:07;7.40;;;3.88;;
60344;SDS011;46188;52.324;8.032;2023-08-20T00:50:33;6.38;;;2.88;;
60344;SDS011;46188;52.324;8.032;2023-08-20T00:52:59;6.07;;;3.10;;
60344;SDS011;46188;52.324;8.032;2023-08-20T00:55:25;5.95;;;2.90;;
60344;SDS011;46188;52.324;8.032;2023-08-20T00:57:50;7.10;;;3.28;;
60344;SDS011;46188;52.324;8.032;2023-08-20T01:00:15;5.33;;;2.80;;
60344;SDS011;46188;52.324;8.032;2023-08-20T01:02:42;7.50;;;3.28;;
60344;SDS011;46188;52.324;8.032;2023-08-20T01:05:08;5.03;;;3.40;;
60344;SDS011;46188;52.324;8.032;2023-08-20T01:12:52;6.32;;;3.55;;
60344;SDS011;46188;52.324;8.032;2023-08-20T01:15:18;5.72;;;3.33;;
60344;SDS011;46188;52.324;8.032;2023-08-20T01:17:43;7.47;;;3.33;;
60344;SDS011;46188;52.324;8.032;2023-08-20T01:20:11;7.53;;;2.92;;
60344;SDS011;46188;52.324;8.032;2023-08-20T01:30:41;7.95;;;3.05;;
60344;SDS011;46188;52.324;8.032;2023-08-20T01:33:09;6.88;;;2.42;;
60344;SDS011;46188;52.324;8.032;2023-08-20T01:35:35;8.02;;;3.25;;
60344;SDS011;46188;52.324;8.032;2023-08-20T01:38:00;6.20;;;2.50;;
60344;SDS011;46188;52.324;8.032;2023-08-20T01:40:26;5.72;;;2.50;;
60344;SDS011;46188;52.324;8.032;2023-08-20T01:42:51;3.97;;;2.45;;
60344;SDS011;46188;52.324;8.032;2023-08-20T01:45:16;8.13;;;3.05;;
60344;SDS011;46188;52.324;8.032;2023-08-20T01:47:43;4.55;;;2.90;;
60344;SDS011;46188;52.324;8.032;2023-08-20T01:50:08;6.43;;;2.60;;
60344;SDS011;46188;52.324;8.032;2023-08-20T01:52:34;7.82;;;3.05;;
60344;SDS011;46188;52.324;8.032;2023-08-20T01:54:59;10.60;;;2.90;;
60344;SDS011;46188;52.324;8.032;2023-08-20T01:57:25;7.13;;;3.15;;
60344;SDS011;46188;52.324;8.032;2023-08-20T01:59:50;6.85;;;2.83;;
60344;SDS011;46188;52.324;8.032;2023-08-20T02:02:15;6.40;;;2.90;;
60344;SDS011;46188;52.324;8.032;2023-08-20T02:04:40;6.57;;;2.72;;
60344;SDS011;46188;52.324;8.032;2023-08-20T02:07:06;4.97;;;3.00;;
60344;SDS011;46188;52.324;8.032;2023-08-20T02:09:31;5.45;;;2.78;;
60344;SDS011;46188;52.324;8.032;2023-08-20T02:11:56;8.00;;;2.70;;
60344;SDS011;46188;52.324;8.032;2023-08-20T02:14:22;4.90;;;2.33;;
60344;SDS011;46188;52.324;8.032;2023-08-20T02:16:47;5.55;;;2.30;;
60344;SDS011;46188;52.324;8.032;2023-08-20T02:19:12;4.97;;;2.20;;
60344;SDS011;46188;52.324;8.032;2023-08-20T02:21:38;6.32;;;2.35;;
60344;SDS011;46188;52.324;8.032;2023-08-20T02:24:04;4.65;;;2.58;;
60344;SDS011;46188;52.324;8.032;2023-08-20T02:26:29;6.85;;;2.83;;
60344;SDS011;46188;52.324;8.032;2023-08-20T02:28:55;5.82;;;2.45;;
60344;SDS011;46188;52.324;8.032;2023-08-20T02:31:20;9.10;;;3.30;;
60344;SDS011;46188;52.324;8.032;2023-08-20T02:33:45;6.35;;;2.78;;
60344;SDS011;46188;52.324;8.032;2023-08-20T02:36:10;6.10;;;2.67;;
60344;SDS011;46188;52.324;8.032;2023-08-20T02:38:36;7.70;;;2.88;;
60344;SDS011;46188;52.324;8.032;2023-08-20T02:41:01;8.88;;;2.72;;
60344;SDS011;46188;52.324;8.032;2023-08-20T02:43:30;5.45;;;2.70;;
60344;SDS011;46188;52.324;8.032;2023-08-20T02:45:55;5.65;;;2.70;;
60344;SDS011;46188;52.324;8.032;2023-08-20T02:48:20;4.05;;;2.47;;
60344;SDS011;46188;52.324;8.032;2023-08-20T02:50:46;8.07;;;3.22;;
60344;SDS011;46188;52.324;8.032;2023-08-20T02:53:11;5.05;;;3.00;;
60344;SDS011;46188;52.324;8.032;2023-08-20T02:55:37;6.13;;;2.85;;
60344;SDS011;46188;52.324;8.032;2023-08-20T02:58:02;7.50;;;2.92;;
60344;SDS011;46188;52.324;8.032;2023-08-20T03:00:32;6.70;;;3.05;;
60344;SDS011;46188;52.324;8.032;2023-08-20T03:02:58;5.63;;;2.90;;
60344;SDS011;46188;52.324;8.032;2023-08-20T03:05:23;5.93;;;3.08;;
60344;SDS011;46188;52.324;8.032;2023-08-20T03:07:48;5.75;;;3.10;;
60344;SDS011;46188;52.324;8.032;2023-08-20T03:10:14;5.97;;;3.00;;
60344;SDS011;46188;52.324;8.032;2023-08-20T03:12:39;6.57;;;3.00;;
60344;SDS011;46188;52.324;8.032;2023-08-20T03:15:05;5.25;;;3.00;;
60344;SDS011;46188;52.324;8.032;2023-08-20T03:17:31;7.43;;;2.72;;
60344;SDS011;46188;52.324;8.032;2023-08-20T03:19:57;6.23;;;2.80;;
60344;SDS011;46188;52.324;8.032;2023-08-20T03:22:23;12.05;;;3.63;;
60344;SDS011;46188;52.324;8.032;2023-08-20T03:24:49;9.45;;;3.42;;
60344;SDS011;46188;52.324;8.032;2023-08-20T03:27:15;6.78;;;3.58;;
60344;SDS011;46188;52.324;8.032;2023-08-20T03:29:41;9.43;;;4.05;;
60344;SDS011;46188;52.324;8.032;2023-08-20T03:32:07;8.15;;;4.22;;
60344;SDS011;46188;52.324;8.032;2023-08-20T03:34:32;6.43;;;3.83;;
60344;SDS011;46188;52.324;8.032;2023-08-20T03:36:57;7.32;;;4.40;;
60344;SDS011;46188;52.324;8.032;2023-08-20T03:39:23;7.68;;;4.30;;
60344;SDS011;46188;52.324;8.032;2023-08-20T03:41:49;6.82;;;3.85;;
60344;SDS011;46188;52.324;8.032;2023-08-20T03:44:15;7.57;;;4.50;;
60344;SDS011;46188;52.324;8.032;2023-08-20T03:46:40;7.45;;;3.90;;
60344;SDS011;46188;52.324;8.032;2023-08-20T03:49:05;8.97;;;4.17;;
60344;SDS011;46188;52.324;8.032;2023-08-20T03:51:30;7.07;;;3.90;;
60344;SDS011;46188;52.324;8.032;2023-08-20T03:53:56;7.50;;;3.45;;
60344;SDS011;46188;52.324;8.032;2023-08-20T03:56:21;6.13;;;3.50;;
60344;SDS011;46188;52.324;8.032;2023-08-20T03:58:46;6.50;;;3.20;;
60344;SDS011;46188;52.324;8.032;2023-08-20T04:01:11;6.03;;;3.33;;
60344;SDS011;46188;52.324;8.032;2023-08-20T04:03:37;8.65;;;3.65;;
60344;SDS011;46188;52.324;8.032;2023-08-20T04:06:02;7.88;;;3.55;;
60344;SDS011;46188;52.324;8.032;2023-08-20T04:08:28;7.82;;;3.30;;
60344;SDS011;46188;52.324;8.032;2023-08-20T04:10:54;11.32;;;4.22;;
60344;SDS011;46188;52.324;8.032;2023-08-20T04:13:19;8.60;;;3.05;;
60344;SDS011;46188;52.324;8.032;2023-08-20T04:15:44;5.22;;;2.75;;
60344;SDS011;46188;52.324;8.032;2023-08-20T04:18:10;5.93;;;2.92;;
60344;SDS011;46188;52.324;8.032;2023-08-20T04:20:35;6.53;;;2.58;;
60344;SDS011;46188;52.324;8.032;2023-08-20T04:23:01;6.72;;;3.08;;
60344;SDS011;46188;52.324;8.032;2023-08-20T04:25:26;9.02;;;3.10;;
60344;SDS011;46188;52.324;8.032;2023-08-20T04:27:52;4.70;;;2.40;;
60344;SDS011;46188;52.324;8.032;2023-08-20T04:30:17;4.88;;;2.20;;
60344;SDS011;46188;52.324;8.032;2023-08-20T04:32:42;9.63;;;2.22;;
60344;SDS011;46188;52.324;8.032;2023-08-20T04:35:08;7.63;;;2.97;;
60344;SDS011;46188;52.324;8.032;2023-08-20T04:37:33;6.22;;;3.10;;
60344;SDS011;46188;52.324;8.032;2023-08-20T04:39:58;7.05;;;2.55;;
60344;SDS011;46188;52.324;8.032;2023-08-20T04:42:24;8.48;;;2.85;;
60344;SDS011;46188;52.324;8.032;2023-08-20T04:44:49;6.60;;;2.75;;
60344;SDS011;46188;52.324;8.032;2023-08-20T04:47:14;6.18;;;3.10;;
60344;SDS011;46188;52.324;8.032;2023-08-20T04:49:40;6.45;;;3.05;;
60344;SDS011;46188;52.324;8.032;2023-08-20T04:52:06;7.70;;;3.58;;
60344;SDS011;46188;52.324;8.032;2023-08-20T04:54:31;8.35;;;3.05;;
60344;SDS011;46188;52.324;8.032;2023-08-20T04:56:56;9.35;;;4.28;;
60344;SDS011;46188;52.324;8.032;2023-08-20T04:59:21;5.63;;;3.70;;
60344;SDS011;46188;52.324;8.032;2023-08-20T05:01:47;11.00;;;5.40;;
60344;SDS011;46188;52.324;8.032;2023-08-20T05:04:12;7.80;;;3.95;;
60344;SDS011;46188;52.324;8.032;2023-08-20T05:06:38;8.70;;;3.83;;
60344;SDS011;46188;52.324;8.032;2023-08-20T05:09:03;7.03;;;3.97;;
60344;SDS011;46188;52.324;8.032;2023-08-20T05:11:28;9.82;;;4.60;;
60344;SDS011;46188;52.324;8.032;2023-08-20T05:13:56;7.07;;;3.90;;
60344;SDS011;46188;52.324;8.032;2023-08-20T05:16:21;7.25;;;3.70;;
60344;SDS011;46188;52.324;8.032;2023-08-20T05:18:47;9.13;;;4.15;;
60344;SDS011;46188;52.324;8.032;2023-08-20T05:21:12;8.77;;;4.35;;
60344;SDS011;46188;52.324;8.032;2023-08-20T05:23:38;5.82;;;4.30;;
60344;SDS011;46188;52.324;8.032;2023-08-20T05:26:05;9.38;;;4.88;;
60344;SDS011;46188;52.324;8.032;2023-08-20T05:28:31;6.82;;;4.05;;
60344;SDS011;46188;52.324;8.032;2023-08-20T05:30:56;6.07;;;4.03;;
60344;SDS011;46188;52.324;8.032;2023-08-20T05:33:22;7.10;;;4.13;;
60344;SDS011;46188;52.324;8.032;2023-08-20T05:35:48;7.55;;;3.97;;
60344;SDS011;46188;52.324;8.032;2023-08-20T05:38:13;9.48;;;3.92;;
60344;SDS011;46188;52.324;8.032;2023-08-20T05:40:39;8.88;;;4.38;;
60344;SDS011;46188;52.324;8.032;2023-08-20T05:43:04;7.20;;;4.22;;
60344;SDS011;46188;52.324;8.032;2023-08-20T05:45:29;7.82;;;3.67;;
60344;SDS011;46188;52.324;8.032;2023-08-20T05:47:54;5.50;;;3.90;;
60344;SDS011;46188;52.324;8.032;2023-08-20T05:50:20;11.93;;;4.57;;
60344;SDS011;46188;52.324;8.032;2023-08-20T05:52:45;7.47;;;4.03;;
60344;SDS011;46188;52.324;8.032;2023-08-20T05:55:10;5.82;;;3.60;;
60344;SDS011;46188;52.324;8.032;2023-08-20T05:57:36;8.45;;;3.92;;
60344;SDS011;46188;52.324;8.032;2023-08-20T06:00:02;8.05;;;3.92;;
60344;SDS011;46188;52.324;8.032;2023-08-20T06:02:29;7.18;;;3.72;;
60344;SDS011;46188;52.324;8.032;2023-08-20T06:04:54;9.30;;;3.90;;
60344;SDS011;46188;52.324;8.032;2023-08-20T06:07:20;6.30;;;3.85;;
60344;SDS011;46188;52.324;8.032;2023-08-20T06:09:45;11.17;;;3.83;;
60344;SDS011;46188;52.324;8.032;2023-08-20T06:12:10;8.30;;;3.70;;
60344;SDS011;46188;52.324;8.032;2023-08-20T06:14:36;6.18;;;3.30;;
60344;SDS011;46188;52.324;8.032;2023-08-20T06:17:01;6.87;;;3.20;;
60344;SDS011;46188;52.324;8.032;2023-08-20T06:19:27;7.85;;;3.53;;
60344;SDS011;46188;52.324;8.032;2023-08-20T06:21:52;8.95;;;3.72;;
60344;SDS011;46188;52.324;8.032;2023-08-20T06:24:17;4.80;;;3.20;;
60344;SDS011;46188;52.324;8.032;2023-08-20T06:26:43;8.05;;;3.65;;
60344;SDS011;46188;52.324;8.032;2023-08-20T06:29:09;9.32;;;3.78;;
60344;SDS011;46188;52.324;8.032;2023-08-20T06:31:35;9.23;;;3.80;;
60344;SDS011;46188;52.324;8.032;2023-08-20T06:34:00;6.85;;;3.33;;
60344;SDS011;46188;52.324;8.032;2023-08-20T06:36:25;8.50;;;3.40;;
60344;SDS011;46188;52.324;8.032;2023-08-20T06:38:50;7.32;;;3.35;;
60344;SDS011;46188;52.324;8.032;2023-08-20T06:41:16;10.95;;;4.13;;
60344;SDS011;46188;52.324;8.032;2023-08-20T06:43:41;7.27;;;3.73;;
60344;SDS011;46188;52.324;8.032;2023-08-20T06:46:07;8.63;;;4.28;;
60344;SDS011;46188;52.324;8.032;2023-08-20T06:48:32;9.52;;;4.40;;
60344;SDS011;46188;52.324;8.032;2023-08-20T06:50:57;6.97;;;3.70;;
60344;SDS011;46188;52.324;8.032;2023-08-20T06:53:22;8.73;;;4.50;;
60344;SDS011;46188;52.324;8.032;2023-08-20T06:55:48;6.80;;;3.80;;
60344;SDS011;46188;52.324;8.032;2023-08-20T06:58:13;7.57;;;4.22;;
60344;SDS011;46188;52.324;8.032;2023-08-20T07:00:38;9.27;;;4.60;;
60344;SDS011;46188;52.324;8.032;2023-08-20T07:03:04;6.80;;;4.28;;
60344;SDS011;46188;52.324;8.032;2023-08-20T07:05:29;6.30;;;3.80;;
60344;SDS011;46188;52.324;8.032;2023-08-20T07:07:54;6.90;;;4.30;;
60344;SDS011;46188;52.324;8.032;2023-08-20T07:10:20;6.43;;;4.37;;
60344;SDS011;46188;52.324;8.032;2023-08-20T07:12:45;6.80;;;5.00;;
60344;SDS011;46188;52.324;8.032;2023-08-20T07:15:10;9.15;;;4.78;;
60344;SDS011;46188;52.324;8.032;2023-08-20T07:17:36;7.88;;;5.38;;
60344;SDS011;46188;52.324;8.032;2023-08-20T07:20:01;5.65;;;4.38;;
60344;SDS011;46188;52.324;8.032;2023-08-20T07:22:28;9.10;;;4.57;;
60344;SDS011;46188;52.324;8.032;2023-08-20T07:24:53;7.53;;;4.63;;
60344;SDS011;46188;52.324;8.032;2023-08-20T07:27:19;8.90;;;4.22;;
60344;SDS011;46188;52.324;8.032;2023-08-20T07:29:45;5.77;;;4.40;;
60344;SDS011;46188;52.324;8.032;2023-08-20T07:32:10;7.40;;;4.47;;
60344;SDS011;46188;52.324;8.032;2023-08-20T07:34:36;7.70;;;4.80;;
60344;SDS011;46188;52.324;8.032;2023-08-20T07:37:02;7.22;;;4.63;;
60344;SDS011;46188;52.324;8.032;2023-08-20T07:39:27;5.95;;;4.53;;
60344;SDS011;46188;52.324;8.032;2023-08-20T07:41:53;6.60;;;4.43;;
60344;SDS011;46188;52.324;8.032;2023-08-20T07:44:18;8.52;;;4.60;;
60344;SDS011;46188;52.324;8.032;2023-08-20T07:46:43;9.27;;;5.15;;
60344;SDS011;46188;52.324;8.032;2023-08-20T07:49:08;7.73;;;5.00;;
60344;SDS011;46188;52.324;8.032;2023-08-20T07:51:34;5.22;;;4.63;;
60344;SDS011;46188;52.324;8.032;2023-08-20T07:53:59;7.67;;;4.60;;
60344;SDS011;46188;52.324;8.032;2023-08-20T07:56:25;7.60;;;5.93;;
60344;SDS011;46188;52.324;8.032;2023-08-20T07:58:51;10.43;;;5.05;;
60344;SDS011;46188;52.324;8.032;2023-08-20T08:01:16;6.35;;;4.63;;
60344;SDS011;46188;52.324;8.032;2023-08-20T08:03:41;7.03;;;4.78;;
60344;SDS011;46188;52.324;8.032;2023-08-20T08:06:07;6.60;;;4.80;;
60344;SDS011;46188;52.324;8.032;2023-08-20T08:08:32;8.57;;;4.93;;
60344;SDS011;46188;52.324;8.032;2023-08-20T08:10:57;5.93;;;4.87;;
60344;SDS011;46188;52.324;8.032;2023-08-20T08:13:23;9.52;;;5.65;;
60344;SDS011;46188;52.324;8.032;2023-08-20T08:15:48;8.30;;;5.85;;
60344;SDS011;46188;52.324;8.032;2023-08-20T08:18:14;8.50;;;5.43;;
60344;SDS011;46188;52.324;8.032;2023-08-20T08:20:39;9.93;;;4.88;;
60344;SDS011;46188;52.324;8.032;2023-08-20T08:23:05;6.10;;;4.93;;
60344;SDS011;46188;52.324;8.032;2023-08-20T08:25:30;7.97;;;5.50;;
60344;SDS011;46188;52.324;8.032;2023-08-20T08:27:55;7.57;;;5.60;;
60344;SDS011;46188;52.324;8.032;2023-08-20T08:30:21;8.07;;;5.75;;
60344;SDS011;46188;52.324;8.032;2023-08-20T08:32:46;8.73;;;5.77;;
60344;SDS011;46188;52.324;8.032;2023-08-20T08:35:11;7.97;;;4.90;;
60344;SDS011;46188;52.324;8.032;2023-08-20T08:37:36;11.32;;;5.82;;
60344;SDS011;46188;52.324;8.032;2023-08-20T08:40:03;10.45;;;5.72;;
60344;SDS011;46188;52.324;8.032;2023-08-20T08:42:32;6.03;;;5.05;;
60344;SDS011;46188;52.324;8.032;2023-08-20T08:44:58;9.77;;;5.68;;
60344;SDS011;46188;52.324;8.032;2023-08-20T08:47:25;7.50;;;4.95;;
60344;SDS011;46188;52.324;8.032;2023-08-20T08:49:51;6.15;;;4.95;;
60344;SDS011;46188;52.324;8.032;2023-08-20T08:52:19;9.45;;;6.05;;
60344;SDS011;46188;52.324;8.032;2023-08-20T08:54:47;7.15;;;4.57;;
60344;SDS011;46188;52.324;8.032;2023-08-20T08:57:12;7.78;;;4.18;;
60344;SDS011;46188;52.324;8.032;2023-08-20T08:59:39;6.63;;;4.72;;
60344;SDS011;46188;52.324;8.032;2023-08-20T09:02:07;7.60;;;5.22;;
60344;SDS011;46188;52.324;8.032;2023-08-20T09:04:34;6.43;;;4.78;;
60344;SDS011;46188;52.324;8.032;2023-08-20T09:07:03;10.20;;;4.70;;
60344;SDS011;46188;52.324;8.032;2023-08-20T09:09:29;6.95;;;4.57;;
60344;SDS011;46188;52.324;8.032;2023-08-20T09:11:54;6.40;;;4.45;;
60344;SDS011;46188;52.324;8.032;2023-08-20T09:14:23;7.57;;;4.97;;
60344;SDS011;46188;52.324;8.032;2023-08-20T09:16:57;6.57;;;5.13;;
60344;SDS011;46188;52.324;8.032;2023-08-20T09:19:24;9.23;;;4.38;;
60344;SDS011;46188;52.324;8.032;2023-08-20T09:21:49;6.70;;;4.70;;
60344;SDS011;46188;52.324;8.032;2023-08-20T09:24:19;7.30;;;4.65;;
60344;SDS011;46188;52.324;8.032;2023-08-20T09:26:51;6.90;;;4.47;;
60344;SDS011;46188;52.324;8.032;2023-08-20T09:29:24;5.82;;;5.00;;
60344;SDS011;46188;52.324;8.032;2023-08-20T09:31:49;6.90;;;3.97;;
60344;SDS011;46188;52.324;8.032;2023-08-20T09:34:24;5.70;;;3.88;;
60344;SDS011;46188;52.324;8.032;2023-08-20T09:36:50;5.97;;;4.18;;
60344;SDS011;46188;52.324;8.032;2023-08-20T09:39:15;5.70;;;3.93;;
60344;SDS011;46188;52.324;8.032;2023-08-20T09:41:40;7.88;;;4.10;;
60344;SDS011;46188;52.324;8.032;2023-08-20T09:44:06;7.63;;;5.25;;
60344;SDS011;46188;52.324;8.032;2023-08-20T09:46:33;8.30;;;5.05;;
60344;SDS011;46188;52.324;8.032;2023-08-20T09:49:00;6.00;;;4.75;;
60344;SDS011;46188;52.324;8.032;2023-08-20T09:51:27;5.13;;;4.10;;
60344;SDS011;46188;52.324;8.032;2023-08-20T09:54:02;6.45;;;3.85;;
60344;SDS011;46188;52.324;8.032;2023-08-20T09:56:38;5.47;;;3.85;;
60344;SDS011;46188;52.324;8.032;2023-08-20T09:59:04;7.47;;;4.22;;
60344;SDS011;46188;52.324;8.032;2023-08-20T10:01:30;5.55;;;3.60;;
60344;SDS011;46188;52.324;8.032;2023-08-20T10:03:56;5.53;;;3.63;;
60344;SDS011;46188;52.324;8.032;2023-08-20T10:06:21;5.95;;;4.05;;
60344;SDS011;46188;52.324;8.032;2023-08-20T10:08:48;6.57;;;3.38;;
60344;SDS011;46188;52.324;8.032;2023-08-20T10:11:15;6.50;;;4.47;;
60344;SDS011;46188;52.324;8.032;2023-08-20T10:13:41;7.80;;;4.72;;
60344;SDS011;46188;52.324;8.032;2023-08-20T10:16:06;4.45;;;3.40;;
60344;SDS011;46188;52.324;8.032;2023-08-20T10:18:31;4.53;;;3.40;;
60344;SDS011;46188;52.324;8.032;2023-08-20T10:21:00;7.50;;;3.47;;
60344;SDS011;46188;52.324;8.032;2023-08-20T10:23:26;5.97;;;3.63;;
60344;SDS011;46188;52.324;8.032;2023-08-20T10:25:52;3.92;;;2.90;;
60344;SDS011;46188;52.324;8.032;2023-08-20T10:28:22;5.50;;;3.65;;
60344;SDS011;46188;52.324;8.032;2023-08-20T10:33:37;5.53;;;3.15;;
60344;SDS011;46188;52.324;8.032;2023-08-20T10:36:07;4.30;;;3.00;;
60344;SDS011;46188;52.324;8.032;2023-08-20T10:38:39;4.40;;;3.38;;
60344;SDS011;46188;52.324;8.032;2023-08-20T10:41:05;5.45;;;2.92;;
60344;SDS011;46188;52.324;8.032;2023-08-20T10:43:54;5.20;;;2.83;;
60344;SDS011;46188;52.324;8.032;2023-08-20T10:46:21;5.68;;;2.88;;
60344;SDS011;46188;52.324;8.032;2023-08-20T10:48:49;4.07;;;2.28;;
60344;SDS011;46188;52.324;8.032;2023-08-20T10:51:17;3.63;;;2.90;;
60344;SDS011;46188;52.324;8.032;2023-08-20T10:59:16;6.32;;;3.33;;
60344;SDS011;46188;52.324;8.032;2023-08-20T11:01:52;4.70;;;2.80;;
60344;SDS011;46188;52.324;8.032;2023-08-20T11:04:20;5.03;;;2.72;;
60344;SDS011;46188;52.324;8.032;2023-08-20T11:06:52;6.97;;;3.00;;
60344;SDS011;46188;52.324;8.032;2023-08-20T11:11:47;4.35;;;2.42;;
60344;SDS011;46188;52.324;8.032;2023-08-20T11:14:13;5.10;;;2.87;;
60344;SDS011;46188;52.324;8.032;2023-08-20T11:16:39;8.18;;;3.17;;
60344;SDS011;46188;52.324;8.032;2023-08-20T11:19:05;6.07;;;2.92;;
60344;SDS011;46188;52.324;8.032;2023-08-20T11:21:33;5.65;;;2.90;;
60344;SDS011;46188;52.324;8.032;2023-08-20T11:23:59;4.10;;;2.75;;
60344;SDS011;46188;52.324;8.032;2023-08-20T11:26:25;4.88;;;3.20;;
60344;SDS011;46188;52.324;8.032;2023-08-20T11:28:50;3.75;;;2.85;;
60344;SDS011;46188;52.324;8.032;2023-08-20T11:31:16;4.33;;;2.73;;
60344;SDS011;46188;52.324;8.032;2023-08-20T11:33:41;3.25;;;2.90;;
60344;SDS011;46188;52.324;8.032;2023-08-20T11:36:06;5.30;;;3.47;;
60344;SDS011;46188;52.324;8.032;2023-08-20T11:38:32;3.72;;;2.90;;
60344;SDS011;46188;52.324;8.032;2023-08-20T11:40:57;5.68;;;3.10;;
60344;SDS011;46188;52.324;8.032;2023-08-20T11:43:24;4.53;;;3.00;;
60344;SDS011;46188;52.324;8.032;2023-08-20T11:45:49;3.63;;;2.95;;
60344;SDS011;46188;52.324;8.032;2023-08-20T11:48:15;4.80;;;2.92;;
60344;SDS011;46188;52.324;8.032;2023-08-20T11:50:41;6.38;;;3.20;;
60344;SDS011;46188;52.324;8.032;2023-08-20T11:53:08;5.22;;;3.00;;
60344;SDS011;46188;52.324;8.032;2023-08-20T11:55:34;3.47;;;3.00;;
60344;SDS011;46188;52.324;8.032;2023-08-20T11:58:00;3.78;;;2.90;;
60344;SDS011;46188;52.324;8.032;2023-08-20T12:00:26;3.78;;;2.67;;
60344;SDS011;46188;52.324;8.032;2023-08-20T12:02:55;3.88;;;2.60;;
60344;SDS011;46188;52.324;8.032;2023-08-20T12:05:26;3.67;;;2.70;;
60344;SDS011;46188;52.324;8.032;2023-08-20T12:08:03;5.28;;;3.55;;
60344;SDS011;46188;52.324;8.032;2023-08-20T12:10:30;8.70;;;5.82;;
60344;SDS011;46188;52.324;8.032;2023-08-20T12:12:57;4.38;;;2.90;;
60344;SDS011;46188;52.324;8.032;2023-08-20T12:15:23;5.28;;;3.65;;
60344;SDS011;46188;52.324;8.032;2023-08-20T12:17:56;3.45;;;2.78;;
60344;SDS011;46188;52.324;8.032;2023-08-20T12:20:22;6.85;;;3.72;;
60344;SDS011;46188;52.324;8.032;2023-08-20T12:22:47;5.80;;;3.35;;
60344;SDS011;46188;52.324;8.032;2023-08-20T12:25:12;4.18;;;2.88;;
60344;SDS011;46188;52.324;8.032;2023-08-20T12:27:37;4.93;;;3.77;;
60344;SDS011;46188;52.324;8.032;2023-08-20T12:30:03;7.23;;;4.00;;
60344;SDS011;46188;52.324;8.032;2023-08-20T12:32:28;4.93;;;3.40;;
60344;SDS011;46188;52.324;8.032;2023-08-20T12:34:54;4.20;;;3.23;;
60344;SDS011;46188;52.324;8.032;2023-08-20T12:37:19;3.93;;;3.33;;
60344;SDS011;46188;52.324;8.032;2023-08-20T12:39:44;5.20;;;3.70;;
60344;SDS011;46188;52.324;8.032;2023-08-20T12:42:09;5.47;;;3.20;;
60344;SDS011;46188;52.324;8.032;2023-08-20T12:44:35;5.70;;;3.47;;
60344;SDS011;46188;52.324;8.032;2023-08-20T12:47:00;6.03;;;3.40;;
60344;SDS011;46188;52.324;8.032;2023-08-20T12:49:25;5.33;;;2.97;;
60344;SDS011;46188;52.324;8.032;2023-08-20T12:51:50;3.27;;;2.73;;
60344;SDS011;46188;52.324;8.032;2023-08-20T12:54:15;4.63;;;3.10;;
60344;SDS011;46188;52.324;8.032;2023-08-20T12:56:41;3.70;;;2.83;;
60344;SDS011;46188;52.324;8.032;2023-08-20T12:59:07;3.97;;;3.28;;
60344;SDS011;46188;52.324;8.032;2023-08-20T13:01:32;4.70;;;2.80;;
60344;SDS011;46188;52.324;8.032;2023-08-20T13:03:57;4.90;;;2.80;;
60344;SDS011;46188;52.324;8.032;2023-08-20T13:06:23;4.30;;;3.20;;
60344;SDS011;46188;52.324;8.032;2023-08-20T13:08:48;6.97;;;2.78;;
60344;SDS011;46188;52.324;8.032;2023-08-20T13:11:15;4.97;;;3.30;;
60344;SDS011;46188;52.324;8.032;2023-08-20T13:13:42;4.80;;;2.78;;
60344;SDS011;46188;52.324;8.032;2023-08-20T13:16:07;4.35;;;2.80;;
60344;SDS011;46188;52.324;8.032;2023-08-20T13:18:33;4.28;;;2.80;;
60344;SDS011;46188;52.324;8.032;2023-08-20T13:20:59;3.83;;;2.30;;
60344;SDS011;46188;52.324;8.032;2023-08-20T13:23:24;4.20;;;2.38;;
60344;SDS011;46188;52.324;8.032;2023-08-20T13:25:49;4.28;;;2.80;;
60344;SDS011;46188;52.324;8.032;2023-08-20T13:28:14;4.03;;;2.40;;
60344;SDS011;46188;52.324;8.032;2023-08-20T13:30:40;3.73;;;2.80;;
60344;SDS011;46188;52.324;8.032;2023-08-20T13:33:05;3.53;;;2.40;;
60344;SDS011;46188;52.324;8.032;2023-08-20T13:35:30;3.07;;;2.27;;
60344;SDS011;46188;52.324;8.032;2023-08-20T13:37:56;4.13;;;2.33;;
60344;SDS011;46188;52.324;8.032;2023-08-20T13:40:21;6.37;;;3.10;;
60344;SDS011;46188;52.324;8.032;2023-08-20T13:42:46;5.65;;;2.42;;
60344;SDS011;46188;52.324;8.032;2023-08-20T13:45:11;4.20;;;2.47;;
60344;SDS011;46188;52.324;8.032;2023-08-20T13:47:37;4.65;;;2.22;;
60344;SDS011;46188;52.324;8.032;2023-08-20T13:50:02;5.27;;;2.30;;
60344;SDS011;46188;52.324;8.032;2023-08-20T13:52:29;4.35;;;2.35;;
60344;SDS011;46188;52.324;8.032;2023-08-20T13:54:54;4.78;;;2.47;;
60344;SDS011;46188;52.324;8.032;2023-08-20T13:57:20;6.50;;;2.60;;
60344;SDS011;46188;52.324;8.032;2023-08-20T13:59:45;3.77;;;2.10;;
60344;SDS011;46188;52.324;8.032;2023-08-20T14:02:10;4.15;;;2.45;;
60344;SDS011;46188;52.324;8.032;2023-08-20T14:04:36;3.88;;;2.53;;
60344;SDS011;46188;52.324;8.032;2023-08-20T14:07:02;5.25;;;2.60;;
60344;SDS011;46188;52.324;8.032;2023-08-20T14:09:27;7.53;;;2.50;;
60344;SDS011;46188;52.324;8.032;2023-08-20T14:11:52;3.33;;;2.00;;
60344;SDS011;46188;52.324;8.032;2023-08-20T14:14:17;4.20;;;2.50;;
60344;SDS011;46188;52.324;8.032;2023-08-20T14:16:43;8.10;;;2.70;;
60344;SDS011;46188;52.324;8.032;2023-08-20T14:19:08;4.83;;;2.63;;
60344;SDS011;46188;52.324;8.032;2023-08-20T14:21:33;5.07;;;2.30;;
60344;SDS011;46188;52.324;8.032;2023-08-20T14:23:58;6.17;;;2.30;;
60344;SDS011;46188;52.324;8.032;2023-08-20T14:26:24;3.22;;;2.03;;
60344;SDS011;46188;52.324;8.032;2023-08-20T14:28:49;3.42;;;2.05;;
60344;SDS011;46188;52.324;8.032;2023-08-20T14:31:14;3.85;;;2.03;;
60344;SDS011;46188;52.324;8.032;2023-08-20T14:33:40;3.42;;;2.20;;
60344;SDS011;46188;52.324;8.032;2023-08-20T14:36:05;3.97;;;2.38;;
60344;SDS011;46188;52.324;8.032;2023-08-20T14:38:30;5.32;;;2.67;;
60344;SDS011;46188;52.324;8.032;2023-08-20T14:41:02;3.13;;;2.05;;
60344;SDS011;46188;52.324;8.032;2023-08-20T14:43:28;4.10;;;1.98;;
60344;SDS011;46188;52.324;8.032;2023-08-20T14:45:54;4.70;;;2.22;;
60344;SDS011;46188;52.324;8.032;2023-08-20T14:48:20;4.22;;;1.70;;
60344;SDS011;46188;52.324;8.032;2023-08-20T14:50:47;3.03;;;1.80;;
60344;SDS011;46188;52.324;8.032;2023-08-20T14:53:13;3.88;;;1.98;;
60344;SDS011;46188;52.324;8.032;2023-08-20T14:55:38;3.55;;;2.08;;
60344;SDS011;46188;52.324;8.032;2023-08-20T14:58:04;3.83;;;1.90;;
60344;SDS011;46188;52.324;8.032;2023-08-20T15:00:31;3.53;;;1.70;;
60344;SDS011;46188;52.324;8.032;2023-08-20T15:02:57;3.72;;;2.00;;
60344;SDS011;46188;52.324;8.032;2023-08-20T15:05:22;4.03;;;1.83;;